Time;durP1;ratioP1;P1;durP2;ratioP2;P2;SDS_P1;SDS_P2;PMS_P1;PMS_P2;Temp;Humidity;BMP_temperature;BMP_pressure;BME280_temperature;BME280_humidity;BME280_pressure;Samples;Min_cycle;Max_cycle;Signal;HPM_P1;HPM_P2
2022/02/11 00:07:40;;;;;;;5.60;5.10;;;9.00;99.90;;;;;;10409876;28;20205;-82
2022/02/11 00:12:43;;;;;;;4.83;4.43;;;9.10;99.90;;;;;;10434112;28;20236;-83
2022/02/11 00:17:45;;;;;;;5.30;4.43;;;9.10;99.90;;;;;;10418035;28;20246;-83
2022/02/11 00:22:49;;;;;;;5.60;4.80;;;9.00;99.90;;;;;;10444192;28;20253;-82
2022/02/11 00:33:27;;;;;;;6.20;5.70;;;9.00;99.90;;;;;;10439692;28;20197;-82
2022/02/11 00:38:42;;;;;;;6.10;5.60;;;9.00;99.90;;;;;;10460878;28;20197;-83
2022/02/11 01:05:13;;;;;;;6.70;6.10;;;9.10;99.90;;;;;;10437576;28;20211;-82
2022/02/11 01:10:17;;;;;;;8.10;7.40;;;9.20;99.90;;;;;;10421695;28;20322;-82
2022/02/11 01:15:20;;;;;;;7.67;6.63;;;9.20;99.90;;;;;;10428486;28;20622;-82
2022/02/11 01:20:30;;;;;;;6.20;5.60;;;9.20;99.90;;;;;;10424037;28;20701;-84
2022/02/11 01:31:03;;;;;;;7.97;6.80;;;9.20;99.90;;;;;;10416277;28;20239;-82
2022/02/11 01:36:18;;;;;;;7.67;6.97;;;9.10;99.90;;;;;;10405751;28;20672;-84
2022/02/11 01:47:20;;;;;;;6.80;6.20;;;9.20;99.90;;;;;;10389431;28;20205;-83
2022/02/11 01:52:32;;;;;;;5.80;5.30;;;9.10;99.90;;;;;;10441632;28;20688;-81
2022/02/11 01:58:07;;;;;;;6.47;5.17;;;9.10;99.90;;;;;;10425887;28;20243;-83
2022/02/11 02:09:02;;;;;;;6.70;5.60;;;9.20;99.90;;;;;;10422209;28;20201;-83
2022/02/11 02:14:34;;;;;;;5.67;5.13;;;9.20;99.90;;;;;;10417840;28;20265;-84
2022/02/11 02:25:17;;;;;;;5.60;4.70;;;9.20;99.90;;;;;;10290165;28;20219;-82
2022/02/11 02:35:57;;;;;;;4.63;4.20;;;9.20;99.90;;;;;;10431103;28;20627;-84
2022/02/11 02:57:23;;;;;;;5.00;4.27;;;9.10;99.90;;;;;;10291507;28;20224;-82
2022/02/11 03:34:50;;;;;;;4.67;4.33;;;8.60;99.90;;;;;;10430847;28;20730;-84
2022/02/11 03:51:23;;;;;;;3.93;3.63;;;8.20;99.90;;;;;;10434383;28;20220;-82
2022/02/11 04:55:22;;;;;;;6.00;5.60;;;6.30;99.90;;;;;;10431398;28;20673;-83
2022/02/11 05:00:24;;;;;;;6.60;6.20;;;6.30;99.90;;;;;;10433644;28;20225;-83
2022/02/11 05:05:28;;;;;;;5.87;5.57;;;6.30;99.90;;;;;;10453804;28;20784;-82
2022/02/11 05:10:30;;;;;;;5.60;5.30;;;6.30;99.90;;;;;;10425875;28;20311;-83
2022/02/11 05:15:32;;;;;;;6.30;5.90;;;6.30;99.90;;;;;;10422213;28;20196;-82
2022/02/11 05:20:36;;;;;;;5.90;5.50;;;6.30;99.90;;;;;;10434165;28;20220;-82
2022/02/11 05:25:41;;;;;;;6.20;5.90;;;6.30;99.90;;;;;;10430733;28;20189;-83
2022/02/11 05:30:44;;;;;;;6.17;5.87;;;6.20;99.90;;;;;;10433303;28;20688;-83
2022/02/11 05:35:48;;;;;;;4.30;4.10;;;6.20;99.90;;;;;;10435977;28;20231;-83
2022/02/11 05:40:50;;;;;;;6.40;6.00;;;6.20;99.90;;;;;;10442220;28;20265;-82
2022/02/11 05:45:52;;;;;;;5.53;5.13;;;6.20;99.90;;;;;;10455782;28;20240;-82
2022/02/11 05:50:55;;;;;;;5.43;5.13;;;6.20;99.90;;;;;;10428973;28;20554;-83
2022/02/11 05:55:57;;;;;;;4.97;4.67;;;6.30;99.90;;;;;;10438045;28;20209;-83
2022/02/11 06:01:00;;;;;;;5.50;5.07;;;6.30;99.90;;;;;;10411667;28;20247;-82
2022/02/11 06:06:03;;;;;;;6.67;5.97;;;6.20;99.90;;;;;;10448204;28;20653;-82
2022/02/11 06:11:05;;;;;;;5.60;5.20;;;6.20;99.90;;;;;;10437120;28;20379;-82
2022/02/11 06:16:07;;;;;;;6.60;6.20;;;6.20;99.90;;;;;;10414576;28;20204;-82
2022/02/11 06:21:11;;;;;;;6.83;6.33;;;6.20;99.90;;;;;;10411387;28;20280;-82
2022/02/11 06:26:13;;;;;;;6.17;5.80;;;6.20;99.90;;;;;;10422741;28;20205;-82
2022/02/11 06:31:15;;;;;;;7.23;6.73;;;6.10;99.90;;;;;;10426452;28;20225;-82
2022/02/11 06:36:19;;;;;;;6.23;5.83;;;6.10;99.90;;;;;;10460651;28;20198;-82
2022/02/11 06:41:21;;;;;;;6.80;6.30;;;6.10;99.90;;;;;;10447644;28;20290;-81
2022/02/11 06:46:23;;;;;;;6.60;6.00;;;6.10;99.90;;;;;;10471262;28;20226;-81
2022/02/11 06:51:26;;;;;;;6.33;5.83;;;6.00;99.90;;;;;;10455339;28;20214;-82
2022/02/11 06:56:28;;;;;;;7.57;6.97;;;6.00;99.90;;;;;;10443682;28;20198;-82
2022/02/11 07:01:30;;;;;;;6.40;5.90;;;6.00;99.90;;;;;;10444662;28;20652;-83
2022/02/11 07:06:34;;;;;;;5.87;5.40;;;6.00;99.90;;;;;;10451774;28;20201;-82
2022/02/11 07:11:36;;;;;;;7.07;6.37;;;6.00;99.90;;;;;;10468834;28;20226;-82
2022/02/11 07:16:43;;;;;;;6.03;5.10;;;6.00;99.90;;;;;;10441673;28;20194;-83
2022/02/11 07:21:47;;;;;;;6.60;6.00;;;6.00;99.90;;;;;;10435030;28;20216;-83
2022/02/11 07:26:49;;;;;;;6.10;5.60;;;6.00;99.90;;;;;;10431597;28;20240;-81
2022/02/11 07:31:51;;;;;;;6.17;5.60;;;6.10;99.90;;;;;;10436949;28;20243;-83
2022/02/11 07:36:55;;;;;;;6.80;6.10;;;6.20;99.90;;;;;;10403394;28;20652;-82
2022/02/11 07:41:57;;;;;;;6.43;5.30;;;6.20;99.90;;;;;;10411539;28;20320;-83
2022/02/11 07:46:59;;;;;;;5.30;4.80;;;6.10;99.90;;;;;;10414432;28;20681;-82
2022/02/11 07:52:03;;;;;;;6.30;5.80;;;6.10;99.90;;;;;;10428683;28;20304;-82
2022/02/11 07:57:05;;;;;;;5.90;5.40;;;6.10;99.90;;;;;;10454434;28;20695;-82
2022/02/11 08:02:10;;;;;;;5.73;5.30;;;6.20;99.90;;;;;;10443549;28;20700;-83
2022/02/11 08:07:14;;;;;;;10.13;5.63;;;6.20;99.90;;;;;;10449403;28;20275;-82
2022/02/11 08:12:17;;;;;;;5.90;5.30;;;6.10;99.90;;;;;;10491324;22;20256;-80
2022/02/11 08:17:19;;;;;;;5.87;5.47;;;6.20;99.90;;;;;;10445215;28;20205;-78
2022/02/11 08:22:23;;;;;;;6.00;4.80;;;6.30;99.90;;;;;;10402074;28;20229;-78
2022/02/11 08:27:25;;;;;;;5.30;4.80;;;6.30;99.90;;;;;;10422348;28;20233;-79
2022/02/11 08:32:29;;;;;;;5.67;4.50;;;6.20;99.90;;;;;;10418574;28;20228;-80
2022/02/11 08:37:34;;;;;;;4.63;4.20;;;6.40;99.90;;;;;;10405231;28;20271;-79
2022/02/11 08:42:36;;;;;;;4.70;4.30;;;6.50;99.90;;;;;;10405343;28;20230;-78
2022/02/11 08:47:38;;;;;;;6.17;3.90;;;6.60;99.90;;;;;;10404091;28;20202;-78
2022/02/11 08:52:41;;;;;;;4.80;3.63;;;6.60;99.90;;;;;;10403790;28;20221;-78
2022/02/11 08:57:47;;;;;;;7.63;4.10;;;6.70;99.90;;;;;;10421308;28;20309;-79
2022/02/11 09:02:52;;;;;;;6.70;3.83;;;6.60;99.90;;;;;;10400266;28;20699;-79
2022/02/11 09:07:56;;;;;;;4.83;4.30;;;6.60;99.90;;;;;;10417124;28;20321;-79
2022/02/11 09:13:00;;;;;;;4.90;4.20;;;6.50;99.90;;;;;;10416467;28;20752;-78
2022/02/11 09:18:03;;;;;;;5.33;4.63;;;6.60;99.90;;;;;;10400913;28;20198;-79
2022/02/11 09:23:06;;;;;;;4.03;3.73;;;6.70;99.90;;;;;;10402658;28;20221;-79
2022/02/11 09:28:08;;;;;;;6.60;4.30;;;6.80;99.90;;;;;;10416001;28;20228;-79
2022/02/11 09:33:11;;;;;;;3.33;2.93;;;6.80;99.90;;;;;;10400884;28;20230;-79
2022/02/11 09:38:15;;;;;;;4.77;4.03;;;6.80;99.90;;;;;;10417199;28;20225;-79
2022/02/11 09:43:18;;;;;;;5.50;3.83;;;6.90;99.90;;;;;;10416665;28;20308;-79
2022/02/11 09:48:23;;;;;;;7.20;3.57;;;7.00;99.90;;;;;;10399363;28;20202;-79
2022/02/11 09:53:29;;;;;;;3.70;3.40;;;7.00;99.90;;;;;;10417046;28;20221;-79
2022/02/11 09:58:32;;;;;;;4.13;3.73;;;7.30;99.90;;;;;;10397747;28;20293;-79
2022/02/11 10:03:35;;;;;;;5.67;3.60;;;7.50;99.90;;;;;;10424433;28;20263;-79
2022/02/11 10:08:41;;;;;;;4.63;3.00;;;7.50;99.90;;;;;;10418508;28;20701;-79
2022/02/11 10:13:43;;;;;;;4.33;3.20;;;7.50;99.90;;;;;;10405369;28;20222;-79
2022/02/11 10:18:48;;;;;;;5.57;4.07;;;7.50;99.90;;;;;;10406197;28;20202;-79
2022/02/11 10:23:54;;;;;;;5.17;4.10;;;7.50;99.90;;;;;;10406318;28;20230;-79
2022/02/11 10:28:57;;;;;;;4.67;3.60;;;7.40;99.90;;;;;;10405222;28;20562;-79
2022/02/11 10:34:03;;;;;;;7.33;3.30;;;7.50;99.90;;;;;;10423210;28;20577;-79
2022/02/11 10:39:11;;;;;;;4.40;2.90;;;7.40;99.90;;;;;;10415468;28;20284;-77
2022/02/11 10:44:22;;;;;;;6.50;4.10;;;7.50;99.90;;;;;;10396704;28;20756;-78
2022/02/11 10:49:32;;;;;;;3.53;3.17;;;7.80;99.90;;;;;;10403579;28;20222;-77
2022/02/11 10:54:35;;;;;;;5.03;3.53;;;7.90;99.90;;;;;;10393955;28;20240;-79
2022/02/11 10:59:39;;;;;;;7.03;3.70;;;7.90;99.90;;;;;;10414634;28;20222;-80
2022/02/11 11:04:42;;;;;;;3.80;2.93;;;7.90;99.90;;;;;;10386274;28;20288;-79
2022/02/11 11:09:46;;;;;;;4.67;2.97;;;8.10;99.90;;;;;;10372771;28;20236;-80
2022/02/11 11:14:50;;;;;;;5.07;3.40;;;8.20;99.90;;;;;;10391408;28;20198;-78
2022/02/11 11:19:55;;;;;;;3.27;2.97;;;8.30;99.90;;;;;;10394672;28;20221;-79
2022/02/11 11:25:01;;;;;;;9.50;3.37;;;8.20;99.90;;;;;;10396082;28;20261;-79
2022/02/11 11:30:27;;;;;;;7.97;3.57;;;8.20;99.90;;;;;;10353305;28;20586;-77
2022/02/11 11:35:29;;;;;;;4.43;3.07;;;8.40;99.90;;;;;;10366803;28;20211;-78
2022/02/11 11:40:32;;;;;;;5.07;3.20;;;8.50;99.90;;;;;;10391230;28;20580;-78
2022/02/11 11:45:35;;;;;;;4.90;3.60;;;8.70;99.90;;;;;;10367843;28;20302;-77
2022/02/11 11:50:41;;;;;;;4.10;3.47;;;8.80;99.90;;;;;;10371195;28;20258;-78
2022/02/11 11:55:44;;;;;;;3.73;3.00;;;8.80;99.90;;;;;;10370437;28;20236;-78
2022/02/11 12:00:46;;;;;;;3.60;2.93;;;8.80;99.90;;;;;;10382106;28;20237;-77
2022/02/11 12:05:53;;;;;;;6.23;2.90;;;8.80;99.90;;;;;;10396966;28;20249;-79
2022/02/11 12:10:59;;;;;;;3.17;2.60;;;8.80;99.90;;;;;;10387168;28;20225;-79
2022/02/11 12:16:03;;;;;;;3.23;2.40;;;8.80;99.70;;;;;;10382055;28;20229;-79
2022/02/11 12:21:06;;;;;;;3.63;2.37;;;8.90;97.70;;;;;;10417935;28;20305;-79
2022/02/11 12:31:30;;;;;;;3.37;2.53;;;9.00;99.90;;;;;;10398799;28;20739;-79
2022/02/11 12:36:32;;;;;;;4.70;2.23;;;9.10;99.70;;;;;;10386629;28;20216;-79
2022/02/11 12:41:45;;;;;;;2.63;2.30;;;9.10;99.00;;;;;;10402551;28;20645;-79
2022/02/11 12:46:48;;;;;;;2.70;2.40;;;9.10;99.30;;;;;;10393845;28;20263;-79
2022/02/11 12:51:52;;;;;;;4.03;2.87;;;9.10;99.90;;;;;;10402407;28;20230;-79
2022/02/11 12:57:03;;;;;;;2.37;2.17;;;9.10;99.90;;;;;;10401794;28;20228;-78
2022/02/11 13:02:06;;;;;;;2.80;2.60;;;9.10;98.90;;;;;;10389257;28;20541;-79
2022/02/11 13:07:08;;;;;;;4.40;2.67;;;9.00;98.00;;;;;;10403133;28;20221;-79
2022/02/11 13:12:12;;;;;;;2.83;2.53;;;9.00;98.40;;;;;;10418195;28;20593;-79
2022/02/11 13:17:14;;;;;;;4.20;2.90;;;9.10;98.90;;;;;;10416713;28;20197;-79
2022/02/11 13:22:18;;;;;;;4.43;2.60;;;9.10;98.10;;;;;;10399110;28;20494;-79
2022/02/11 13:27:22;;;;;;;2.80;2.60;;;9.00;98.60;;;;;;10386714;28;20213;-78
2022/02/11 13:32:28;;;;;;;5.80;2.60;;;9.00;99.90;;;;;;10420533;28;20218;-78
2022/02/11 13:37:37;;;;;;;3.10;2.80;;;8.90;98.90;;;;;;10387455;28;20572;-77
2022/02/11 13:42:41;;;;;;;2.80;2.60;;;8.70;98.30;;;;;;10403560;28;20229;-79
2022/02/11 13:48:02;;;;;;;4.10;2.87;;;8.60;99.70;;;;;;10396805;28;20292;-79
2022/02/11 13:53:06;;;;;;;4.77;2.60;;;8.40;99.90;;;;;;10397945;28;20224;-79
2022/02/11 13:58:17;;;;;;;3.20;3.00;;;8.30;99.30;;;;;;10379889;28;20300;-79
2022/02/11 14:03:21;;;;;;;4.13;2.37;;;8.40;98.40;;;;;;10397268;28;20252;-79
2022/02/11 14:08:24;;;;;;;2.57;2.37;;;8.40;98.00;;;;;;10380328;28;20686;-79
2022/02/11 14:13:34;;;;;;;3.33;3.03;;;8.30;98.50;;;;;;10385187;28;20284;-78
2022/02/11 14:18:39;;;;;;;4.10;3.00;;;8.30;98.30;;;;;;10398050;28;20284;-79
2022/02/11 14:23:41;;;;;;;7.20;3.07;;;8.30;98.90;;;;;;10398097;28;20272;-79
2022/02/11 14:28:45;;;;;;;5.70;2.60;;;8.30;98.60;;;;;;10397159;28;20688;-79
2022/02/11 14:33:47;;;;;;;3.40;2.77;;;8.30;98.20;;;;;;10390877;28;20228;-79
2022/02/11 14:38:49;;;;;;;3.73;2.20;;;8.40;99.40;;;;;;10395422;28;20961;-79
2022/02/11 14:43:52;;;;;;;2.67;2.47;;;8.50;98.80;;;;;;10419319;28;20308;-79
2022/02/11 14:48:54;;;;;;;3.30;2.57;;;8.60;98.00;;;;;;10405363;28;20570;-79
2022/02/11 14:53:58;;;;;;;3.63;2.80;;;8.60;97.30;;;;;;10406984;28;20226;-79
2022/02/11 14:59:01;;;;;;;3.53;2.80;;;8.60;98.40;;;;;;10424900;28;20210;-80
2022/02/11 15:04:04;;;;;;;3.17;2.47;;;8.60;97.60;;;;;;10408354;28;20229;-78
2022/02/11 15:09:07;;;;;;;5.27;4.77;;;8.70;98.70;;;;;;10390918;28;20757;-79
2022/02/11 15:14:11;;;;;;;3.57;3.20;;;8.70;99.30;;;;;;10386773;28;20251;-79
2022/02/11 15:19:14;;;;;;;4.77;2.97;;;8.70;99.90;;;;;;10399014;28;20206;-79
2022/02/11 15:24:16;;;;;;;5.63;3.40;;;8.70;99.90;;;;;;10394841;28;20217;-79
2022/02/11 15:29:20;;;;;;;3.23;2.80;;;8.80;99.60;;;;;;10402651;28;20241;-79
2022/02/11 15:34:22;;;;;;;4.00;2.90;;;8.60;98.10;;;;;;10386202;28;20594;-80
2022/02/11 15:39:24;;;;;;;3.03;2.80;;;8.60;98.80;;;;;;10420136;28;20210;-78
2022/02/11 15:44:28;;;;;;;4.80;3.70;;;8.60;99.30;;;;;;10421135;28;20279;-79
2022/02/11 15:49:30;;;;;;;6.03;2.90;;;8.60;98.90;;;;;;10390298;28;20223;-80
2022/02/11 15:54:33;;;;;;;6.07;2.97;;;8.50;97.90;;;;;;10396286;28;20563;-79
2022/02/11 15:59:37;;;;;;;3.73;2.57;;;8.50;98.30;;;;;;10392707;28;20221;-79
2022/02/11 16:04:39;;;;;;;4.40;3.07;;;8.50;99.50;;;;;;10399734;28;20716;-78
2022/02/11 16:09:41;;;;;;;4.57;2.77;;;8.40;98.30;;;;;;10386300;28;20225;-79
2022/02/11 16:14:45;;;;;;;4.40;2.80;;;8.40;99.60;;;;;;10400640;28;20263;-79
2022/02/11 16:19:47;;;;;;;4.37;2.43;;;8.40;99.40;;;;;;10414613;28;20261;-79
2022/02/11 16:24:49;;;;;;;2.70;2.40;;;8.30;99.20;;;;;;10417927;28;20213;-79
2022/02/11 16:29:52;;;;;;;4.70;2.90;;;8.30;98.60;;;;;;10418943;28;20713;-79
2022/02/11 16:34:54;;;;;;;3.43;2.60;;;8.30;99.10;;;;;;10419973;28;20194;-78
2022/02/11 16:39:56;;;;;;;5.30;3.20;;;8.30;99.50;;;;;;10419536;28;20222;-79
2022/02/11 16:45:02;;;;;;;5.07;3.43;;;8.20;97.80;;;;;;10401040;28;20225;-80
2022/02/11 16:50:06;;;;;;;3.97;3.10;;;8.20;99.70;;;;;;10399300;28;20240;-79
2022/02/11 16:55:10;;;;;;;5.13;3.80;;;8.10;99.90;;;;;;10394100;28;20200;-82
2022/02/11 17:00:14;;;;;;;3.90;3.60;;;7.90;99.90;;;;;;10404083;28;20226;-80
2022/02/11 17:05:21;;;;;;;7.80;2.90;;;7.80;99.90;;;;;;10403935;28;20249;-80
2022/02/11 17:10:23;;;;;;;6.37;4.23;;;7.60;99.90;;;;;;10399075;28;20241;-80
2022/02/11 17:15:27;;;;;;;4.57;4.17;;;7.50;99.90;;;;;;10396730;28;20717;-80
2022/02/11 17:20:29;;;;;;;7.30;4.10;;;7.50;99.90;;;;;;10383167;28;20229;-79
2022/02/11 17:25:31;;;;;;;6.50;3.83;;;7.50;99.90;;;;;;10421729;28;20232;-80
2022/02/11 17:30:35;;;;;;;6.53;4.17;;;7.50;99.90;;;;;;10402215;28;20244;-79
2022/02/11 17:35:37;;;;;;;6.60;4.07;;;7.50;99.90;;;;;;10403394;28;20228;-79
2022/02/11 17:40:39;;;;;;;4.93;4.00;;;7.50;99.90;;;;;;10419637;28;20210;-79
2022/02/11 17:45:44;;;;;;;6.70;3.53;;;7.50;99.90;;;;;;10403997;28;20220;-79
2022/02/11 17:50:46;;;;;;;6.63;3.90;;;7.40;99.90;;;;;;10415944;28;20214;-79
2022/02/11 17:55:48;;;;;;;7.27;5.00;;;7.40;99.90;;;;;;10405741;28;20225;-79
2022/02/11 18:00:52;;;;;;;6.53;5.00;;;7.30;99.90;;;;;;10422542;28;20226;-79
2022/02/11 18:05:55;;;;;;;6.97;5.40;;;7.30;99.90;;;;;;10423212;28;20225;-79
2022/02/11 18:10:57;;;;;;;5.80;4.67;;;7.20;99.90;;;;;;10403621;28;20291;-80
2022/02/11 18:16:01;;;;;;;5.53;5.07;;;7.20;99.90;;;;;;10404404;28;20206;-79
2022/02/11 18:21:03;;;;;;;5.37;4.90;;;7.10;99.90;;;;;;10447516;28;20225;-79
2022/02/11 18:26:05;;;;;;;6.60;5.50;;;7.10;99.90;;;;;;10425603;28;20222;-80
2022/02/11 18:31:09;;;;;;;10.60;6.40;;;7.00;99.90;;;;;;10390856;28;20275;-78
2022/02/11 18:36:11;;;;;;;8.60;6.37;;;7.00;99.90;;;;;;10405859;28;20194;-79
2022/02/11 18:41:13;;;;;;;8.30;5.83;;;6.90;99.90;;;;;;10424172;28;20705;-78
2022/02/11 18:46:16;;;;;;;8.13;6.80;;;6.90;99.90;;;;;;10425531;28;20260;-79
2022/02/11 18:51:18;;;;;;;7.50;5.80;;;6.90;99.90;;;;;;10401429;28;20229;-78
2022/02/11 18:56:20;;;;;;;9.23;8.10;;;6.70;99.90;;;;;;10424622;28;20684;-79
2022/02/11 19:01:24;;;;;;;10.93;9.47;;;6.40;99.90;;;;;;10405052;28;20221;-79
2022/02/11 19:06:27;;;;;;;8.90;6.97;;;6.20;99.90;;;;;;10389020;28;20217;-79
2022/02/11 19:11:29;;;;;;;14.80;10.40;;;6.00;99.90;;;;;;10423415;28;20258;-79
2022/02/11 19:16:34;;;;;;;15.80;11.87;;;5.80;99.90;;;;;;10403455;28;20229;-79
2022/02/11 19:21:37;;;;;;;17.97;10.80;;;5.60;99.90;;;;;;10403737;28;20232;-78
2022/02/11 19:26:39;;;;;;;13.23;10.30;;;5.40;99.90;;;;;;10403114;28;20304;-79
2022/02/11 19:31:43;;;;;;;13.30;10.50;;;5.30;99.90;;;;;;10421111;28;20218;-79
2022/02/11 19:36:45;;;;;;;15.40;11.10;;;5.20;99.90;;;;;;10395791;28;20198;-79
2022/02/11 19:41:47;;;;;;;22.13;15.27;;;5.10;99.90;;;;;;10411910;28;20229;-79
2022/02/11 19:46:51;;;;;;;29.43;23.10;;;5.10;99.90;;;;;;10402449;28;20220;-79
2022/02/11 19:51:53;;;;;;;15.70;8.83;;;5.00;99.90;;;;;;10417014;28;20582;-78
2022/02/11 19:56:57;;;;;;;16.63;9.40;;;5.00;99.90;;;;;;10420328;28;20205;-78
2022/02/11 20:02:00;;;;;;;13.80;9.57;;;5.00;99.90;;;;;;10420800;28;20228;-79
2022/02/11 20:07:02;;;;;;;10.00;7.03;;;4.90;99.90;;;;;;10404915;28;20252;-79
2022/02/11 20:12:05;;;;;;;10.43;6.47;;;4.80;99.90;;;;;;10451984;22;20688;-79
2022/02/11 20:17:09;;;;;;;10.40;7.40;;;4.70;99.90;;;;;;10476258;28;20192;-79
2022/02/11 20:22:11;;;;;;;8.20;5.00;;;4.70;99.90;;;;;;10458258;28;20237;-79
2022/02/11 20:27:13;;;;;;;6.77;4.60;;;4.80;99.90;;;;;;10406458;28;20701;-79
2022/02/11 20:32:17;;;;;;;8.13;5.47;;;4.80;99.90;;;;;;10437737;28;20252;-79
2022/02/11 20:37:19;;;;;;;9.43;5.83;;;4.80;99.90;;;;;;10420405;28;20205;-79
2022/02/11 20:42:22;;;;;;;14.67;8.87;;;4.90;99.90;;;;;;10423328;28;20608;-79
2022/02/11 20:47:25;;;;;;;8.53;6.87;;;5.00;99.90;;;;;;10411054;28;20218;-79
2022/02/11 20:52:27;;;;;;;6.40;4.47;;;5.00;99.90;;;;;;10425983;28;20274;-79
2022/02/11 20:57:29;;;;;;;8.53;4.90;;;5.00;99.90;;;;;;10432819;28;20197;-79
2022/02/11 21:02:33;;;;;;;10.50;4.50;;;5.10;99.90;;;;;;10459886;28;20266;-79
2022/02/11 21:07:35;;;;;;;3.60;3.30;;;5.10;99.90;;;;;;10436228;28;20229;-79
2022/02/11 21:12:37;;;;;;;6.83;3.50;;;5.10;99.90;;;;;;10422313;28;20247;-80
2022/02/11 21:17:41;;;;;;;8.17;4.33;;;5.10;99.90;;;;;;10411397;28;20198;-80
2022/02/11 21:22:44;;;;;;;13.30;4.53;;;5.10;99.90;;;;;;10416086;28;20226;-80
2022/02/11 21:27:46;;;;;;;7.53;5.37;;;5.10;99.90;;;;;;10379949;28;20226;-77
2022/02/11 21:32:51;;;;;;;7.73;5.00;;;5.10;99.90;;;;;;10388201;28;20714;-77
2022/02/11 21:37:53;;;;;;;8.37;5.13;;;5.10;99.90;;;;;;10391680;28;20202;-77
2022/02/11 21:42:55;;;;;;;7.30;6.23;;;5.00;99.90;;;;;;10385366;28;20638;-77
2022/02/11 21:47:59;;;;;;;10.70;7.00;;;4.90;99.90;;;;;;10376974;28;20221;-77
2022/02/11 21:53:06;;;;;;;7.70;6.73;;;4.80;99.90;;;;;;10381492;28;20667;-77
2022/02/11 21:58:08;;;;;;;10.53;8.30;;;4.80;99.90;;;;;;10399262;28;20281;-78
2022/02/11 22:03:12;;;;;;;13.70;10.03;;;4.70;99.90;;;;;;10415408;28;20301;-80
2022/02/11 22:08:14;;;;;;;15.00;10.60;;;4.70;99.90;;;;;;10407090;28;20259;-79
2022/02/11 22:13:16;;;;;;;13.33;9.87;;;4.60;99.90;;;;;;10383499;28;20302;-79
2022/02/11 22:18:20;;;;;;;12.07;10.30;;;4.60;99.90;;;;;;10404134;28;20190;-79
2022/02/11 22:23:22;;;;;;;10.53;9.47;;;4.60;99.90;;;;;;10408001;28;20666;-79
2022/02/11 22:28:24;;;;;;;10.20;7.80;;;4.60;99.90;;;;;;10409635;28;20221;-80
2022/02/11 22:33:30;;;;;;;12.00;8.70;;;4.50;99.90;;;;;;10408337;28;20226;-79
2022/02/11 22:38:32;;;;;;;10.40;8.60;;;4.40;99.90;;;;;;10395567;28;20666;-80
2022/02/11 22:43:34;;;;;;;10.77;7.57;;;4.40;99.90;;;;;;10409937;28;20218;-79
2022/02/11 22:48:37;;;;;;;9.73;7.43;;;4.20;99.90;;;;;;10393082;28;20298;-79
2022/02/11 22:53:40;;;;;;;9.03;7.00;;;4.20;99.90;;;;;;10396581;28;20221;-79
2022/02/11 22:58:42;;;;;;;8.23;6.03;;;4.10;99.90;;;;;;10400760;28;20190;-79
2022/02/11 23:03:47;;;;;;;8.77;7.23;;;4.00;99.90;;;;;;10398756;28;20218;-79
2022/02/11 23:14:09;;;;;;;9.20;6.33;;;4.00;99.90;;;;;;10445814;28;20233;-77
2022/02/11 23:19:14;;;;;;;6.33;5.60;;;4.00;99.90;;;;;;10414058;28;20342;-77
2022/02/11 23:24:16;;;;;;;8.33;6.10;;;4.10;99.90;;;;;;10444633;28;20231;-77
2022/02/11 23:29:18;;;;;;;8.27;5.60;;;4.10;99.90;;;;;;10440756;28;20292;-77
2022/02/11 23:34:22;;;;;;;10.33;5.60;;;4.10;99.90;;;;;;10410569;28;20221;-77
2022/02/11 23:39:24;;;;;;;9.93;6.27;;;4.00;99.90;;;;;;10431180;28;20212;-77
2022/02/11 23:44:26;;;;;;;8.30;5.63;;;3.90;99.90;;;;;;10425715;28;20207;-76
2022/02/11 23:49:29;;;;;;;7.43;6.70;;;3.90;99.90;;;;;;10450365;28;20212;-77
2022/02/11 23:54:34;;;;;;;9.20;6.83;;;3.90;99.90;;;;;;10430532;28;20209;-77
2022/02/11 23:59:36;;;;;;;10.17;7.70;;;3.90;99.90;;;;;;10451459;28;20208;-77
